WetterOnline ( https://www.wetteronline.de )

Wetter aktuell Wustrow

Aktuelles Wetter: Barth (7m)

6-stündlich | Neueste Meldungen
Ortszeit Temperatur Wetter
Di, 21.05. 2:00 12.5° C bewölkt
Mo, 20.05. 20:00 18.1° C wolkenlos
Mo, 20.05. 14:00 21.4° C bedeckt
Mo, 20.05. 8:00 15.4° C bewölkt
Mo, 20.05. 2:00 8.8° C Nebel
So, 19.05. 20:00 16.4° C bedeckt
So, 19.05. 14:00 19.5° C bewölkt
So, 19.05. 8:00 14.4° C bedeckt
Ortszeit Temperatur Wetter
Di, 21.05. 2:00 12.5° C bewölkt
Di, 21.05. 1:50 12.5° C bewölkt
Di, 21.05. 1:40 12.6° C bewölkt
Di, 21.05. 1:30 12.5° C leicht bewölkt
Di, 21.05. 1:20 12.5° C leicht bewölkt
Di, 21.05. 1:10 12.4° C leicht bewölkt
Di, 21.05. 1:00 12.5° C fast wolkenlos
Di, 21.05. 0:30 12.8° C fast wolkenlos
Di, 21.05. 0:00 13.4° C bewölkt
Mo, 20.05. 23:30 13.7° C bedeckt
Mo, 20.05. 23:00 13.8° C bedeckt
Ortszeit Relative Feuchte Sichtweite
Di, 21.05. 2:00 95% 11 km
Mo, 20.05. 20:00 68% 55 km
Mo, 20.05. 14:00 58% >70 km
Mo, 20.05. 8:00 92% 25 km
Mo, 20.05. 2:00 97% 14 km
So, 19.05. 20:00 83% 65 km
So, 19.05. 14:00 62% >70 km
So, 19.05. 8:00 89% 35 km
Ortszeit Relative Feuchte Sichtweite
Di, 21.05. 2:00 95% 11 km
Di, 21.05. 1:50 95% -
Di, 21.05. 1:40 94% -
Di, 21.05. 1:30 95% 16 km
Di, 21.05. 1:20 95% -
Di, 21.05. 1:10 95% -
Di, 21.05. 1:00 94% 17 km
Di, 21.05. 0:30 95% 13 km
Di, 21.05. 0:00 90% 23 km
Mo, 20.05. 23:30 91% 22 km
Mo, 20.05. 23:00 89% 23 km
Ortszeit Niederschlagsmenge Niederschlagsart
Di, 21.05. 2:00 0.1 l/m2 in 6 Std. Regen
Mo, 20.05. 20:00 0.0 l/m2 in 12 Std. -
Mo, 20.05. 14:00 0.0 l/m2 in 6 Std. -
Mo, 20.05. 8:00 1 l/m2 in 12 Std. Regen
Mo, 20.05. 2:00 0.1 l/m2 in 6 Std. Regen
So, 19.05. 20:00 0.1 l/m2 in 12 Std. Regen
So, 19.05. 14:00 0.0 l/m2 in 6 Std. -
So, 19.05. 8:00 1 l/m2 in 12 Std. Regen
Ortszeit Niederschlagsmenge Niederschlagsart
Di, 21.05. 2:00 0.0 l/m2 in 1 Std. Regen
Di, 21.05. 1:50 keine Meldung -
Di, 21.05. 1:40 keine Meldung -
Di, 21.05. 1:30 0.0 l/m2 in 30 Min -
Di, 21.05. 1:20 keine Meldung -
Di, 21.05. 1:10 keine Meldung -
Di, 21.05. 1:00 0.0 l/m2 in 1 Std. -
Di, 21.05. 0:30 0.0 l/m2 in 30 Min -
Di, 21.05. 0:00 0.0 l/m2 in 1 Std. -
Mo, 20.05. 23:30 0.0 l/m2 in 30 Min -
Mo, 20.05. 23:00 <0.05 l/m2 in 1 Std. Regen
Ortszeit Stärke Spitze Richtung
km/h Bft. km/h Grad Sektor
Di, 21.05. 2:00 18 3 32 80° O
Mo, 20.05. 20:00 18 3 40 80° O
Mo, 20.05. 14:00 18 3 29 90° O
Mo, 20.05. 8:00 7 2 14 50° NO
Mo, 20.05. 2:00 6 1 22 10° N
So, 19.05. 20:00 9 2 33 150° SO
So, 19.05. 14:00 13 3 22 90° O
So, 19.05. 8:00 7 2 22 40° NO
Ortszeit Stärke Spitze Richtung
km/h Bft. km/h Grad Sektor
Di, 21.05. 2:00 18 3 32 80° O
Di, 21.05. 1:50 18 3 - 80° O
Di, 21.05. 1:40 22 4 - 80° O
Di, 21.05. 1:30 18 3 29 70° O
Di, 21.05. 1:20 18 3 - 70° O
Di, 21.05. 1:10 17 3 - 70° O
Di, 21.05. 1:00 17 3 26 70° O
Di, 21.05. 0:30 14 3 25 70° O
Di, 21.05. 0:00 20 4 28 70° O
Mo, 20.05. 23:30 17 3 24 80° O
Mo, 20.05. 23:00 17 3 31 80° O
Ortszeit Untergrenze Bedeckung Gattung
total tief tief mittel hoch
Di, 21.05. 2:00 180 m 7/8 7/8 - - -
Mo, 20.05. 20:00 - 0/8 0/8 - - -
Mo, 20.05. 14:00 4500 m 8/8 8/8 - - -
Mo, 20.05. 8:00 2700 m 8/8 4/8 - - -
Mo, 20.05. 2:00 2700 m 8/8 2/8 - - -
So, 19.05. 20:00 1380 m 8/8 8/8 - - -
So, 19.05. 14:00 1170 m 8/8 5/8 - - -
So, 19.05. 8:00 1800 m 8/8 8/8 - - -
Ortszeit Bedeckungsgrad in Achtel und Wolkenuntergrenze
Di, 21.05. 2:00 7(180m) 7(2400m)
Di, 21.05. 1:50 7(180m) 7(2400m)
Di, 21.05. 1:40 7
Di, 21.05. 1:30 4(180m)
Di, 21.05. 1:20 4(180m)
Di, 21.05. 1:10 2
Di, 21.05. 1:00 1(210m)
Di, 21.05. 0:30 1(210m)
Di, 21.05. 0:00 7(2700m)
Mo, 20.05. 23:30 1(1500m) 8(2700m)
Mo, 20.05. 23:00 4(1500m) 7(2100m) 8(2700m)
Ortszeit Luftdruck NN (hPa) Tendenz (hPa in 3 Std.)
Di, 21.05. 2:00 1015 + 0,1
Mo, 20.05. 20:00 1014 + 0,8
Mo, 20.05. 14:00 1013 + 0,3
Mo, 20.05. 8:00 1012 + 0,5
Mo, 20.05. 2:00 1011 + 0,2
So, 19.05. 20:00 1010 + 0,8
So, 19.05. 14:00 1010 - 0,5
So, 19.05. 8:00 1011 + 1,1
Ortszeit Luftdruck NN (hPa) Tendenz (hPa in 3 Std.)
Di, 21.05. 2:00 1015 + 0,1
Di, 21.05. 1:50 1015 keine Meldung
Di, 21.05. 1:40 1015 keine Meldung
Di, 21.05. 1:30 1015 + 0,2
Di, 21.05. 1:20 1015 keine Meldung
Di, 21.05. 1:10 1015 keine Meldung
Di, 21.05. 1:00 1015 + 0,4
Di, 21.05. 0:30 1015 + 0,4
Di, 21.05. 0:00 1015 + 0,6
Mo, 20.05. 23:30 1015 + 1,0
Mo, 20.05. 23:00 1015 + 1,2
Ortszeit Schneehöhe (cm)
Di, 21.05. 2:00 0
Mo, 20.05. 20:00 0
Mo, 20.05. 14:00 0
Mo, 20.05. 8:00 0
Mo, 20.05. 2:00 0
So, 19.05. 20:00 0
So, 19.05. 14:00 0
So, 19.05. 8:00 0
Ortszeit Schneehöhe (cm)
Di, 21.05. 2:00 0
Di, 21.05. 1:50 0
Di, 21.05. 1:40 -
Di, 21.05. 1:30 0
Di, 21.05. 1:20 0
Di, 21.05. 1:10 -
Di, 21.05. 1:00 0
Di, 21.05. 0:30 0
Di, 21.05. 0:00 0
Mo, 20.05. 23:30 0
Mo, 20.05. 23:00 0
Link zu dieser Seite / Seite empfehlen

Das Wetter in ...